Time;durP1;ratioP1;P1;durP2;ratioP2;P2;SDS_P1;SDS_P2;PMS_P1;PMS_P2;Temp;Humidity;BMP_temperature;BMP_pressure;BME280_temperature;BME280_humidity;BME280_pressure;Samples;Min_cycle;Max_cycle;Signal;HPM_P1;HPM_P2
2021/12/16 00:11:02;;;;;;;34.58;20.80;;;11.00;90.20;;;;;;5128460;28;20083;-81
2021/12/16 00:33:38;;;;;;;37.40;21.20;;;10.90;90.20;;;;;;5119605;28;20114;-81
2021/12/16 00:36:06;;;;;;;36.30;20.25;;;10.90;90.30;;;;;;5101043;28;20554;-81
2021/12/16 00:38:33;;;;;;;35.25;20.90;;;10.90;90.30;;;;;;5100076;28;20030;-81
2021/12/16 00:41:00;;;;;;;38.65;21.23;;;10.90;90.30;;;;;;5103287;28;20023;-81
2021/12/16 00:43:38;;;;;;;39.10;22.10;;;10.90;90.30;;;;;;5101783;28;20024;-81
2021/12/16 00:54:10;;;;;;;41.88;23.00;;;10.90;90.30;;;;;;5120777;28;20038;-80
2021/12/16 00:56:37;;;;;;;35.15;21.23;;;10.80;90.30;;;;;;5105223;28;20047;-81
2021/12/16 00:59:05;;;;;;;34.60;20.75;;;10.80;90.30;;;;;;5107504;28;20130;-80
2021/12/16 01:01:43;;;;;;;38.67;20.00;;;10.80;90.30;;;;;;5104731;28;20035;-81
2021/12/16 01:50:38;;;;;;;36.72;21.08;;;10.70;90.30;;;;;;5121350;28;20312;-86
2021/12/16 01:56:03;;;;;;;39.38;20.98;;;10.70;90.30;;;;;;5121895;28;20034;-86
2021/12/16 01:58:32;;;;;;;38.30;21.00;;;10.80;90.30;;;;;;5104102;28;20532;-86
2021/12/16 02:01:53;;;;;;;37.38;20.35;;;10.80;90.30;;;;;;5102520;28;20049;-85
2021/12/16 02:04:12;;;;;;;37.13;22.08;;;10.80;90.30;;;;;;5106717;28;20059;-85
2021/12/16 02:07:00;;;;;;;42.95;21.98;;;10.80;90.30;;;;;;5102345;28;20038;-85
2021/12/16 02:09:34;;;;;;;43.08;22.38;;;10.80;90.30;;;;;;5102848;28;20073;-85
2021/12/16 02:12:23;;;;;;;40.60;22.88;;;10.70;90.30;;;;;;5102526;28;20043;-85
2021/12/16 02:29:13;;;;;;;39.03;21.20;;;10.70;90.50;;;;;;5120080;28;20096;-86
2021/12/16 02:36:45;;;;;;;36.20;22.38;;;10.70;90.40;;;;;;5119875;28;20036;-86
2021/12/16 02:39:19;;;;;;;36.63;20.35;;;10.70;90.40;;;;;;5100843;28;20026;-86
2021/12/16 02:41:47;;;;;;;36.05;20.42;;;10.70;90.40;;;;;;5119048;28;20031;-86
2021/12/16 02:44:28;;;;;;;33.38;20.13;;;10.80;90.40;;;;;;5119140;28;20031;-86
2021/12/16 02:49:44;;;;;;;31.30;20.25;;;10.70;90.40;;;;;;5119519;28;20112;-85
2021/12/16 02:52:11;;;;;;;33.85;20.00;;;10.70;90.40;;;;;;5100245;28;20016;-85
2021/12/16 02:54:37;;;;;;;35.78;21.10;;;10.70;90.40;;;;;;5100513;28;20030;-86
2021/12/16 02:57:04;;;;;;;33.42;21.20;;;10.70;90.40;;;;;;5100599;28;20024;-86
2021/12/16 02:59:31;;;;;;;33.42;19.63;;;10.70;90.40;;;;;;5100873;28;20097;-85
2021/12/16 03:02:05;;;;;;;32.13;19.95;;;10.70;90.40;;;;;;5098003;28;20038;-86
2021/12/16 03:04:31;;;;;;;33.70;20.40;;;10.70;90.40;;;;;;5101327;28;20126;-86
2021/12/16 03:06:58;;;;;;;30.65;20.67;;;10.70;90.40;;;;;;5101058;28;20043;-85
2021/12/16 03:14:43;;;;;;;31.95;19.73;;;10.60;90.40;;;;;;5118901;28;20028;-86
2021/12/16 03:23:35;;;;;;;37.33;20.38;;;10.60;90.40;;;;;;5119938;28;20031;-87
2021/12/16 03:26:30;;;;;;;33.30;18.88;;;10.60;90.40;;;;;;5100928;28;20106;-87
2021/12/16 03:31:47;;;;;;;32.10;19.75;;;10.60;90.40;;;;;;5119261;28;20103;-86
2021/12/16 03:37:15;;;;;;;32.45;19.10;;;10.60;90.40;;;;;;5118631;28;20055;-86
2021/12/16 03:40:10;;;;;;;34.00;19.92;;;10.60;90.40;;;;;;5109601;28;20031;-86
2021/12/16 03:42:44;;;;;;;32.13;20.50;;;10.60;90.40;;;;;;5100601;28;20011;-86
2021/12/16 03:48:14;;;;;;;37.67;19.73;;;10.60;90.40;;;;;;5118245;28;20050;-86
2021/12/16 03:50:41;;;;;;;37.10;19.95;;;10.60;90.30;;;;;;5100227;28;20028;-86
2021/12/16 03:53:08;;;;;;;34.53;19.92;;;10.60;90.40;;;;;;5100283;28;20020;-86
2021/12/16 03:55:34;;;;;;;35.75;19.85;;;10.60;90.40;;;;;;5100000;28;20028;-87
2021/12/16 03:58:00;;;;;;;39.42;20.58;;;10.60;90.40;;;;;;5100945;28;20433;-86
2021/12/16 04:00:31;;;;;;;35.75;19.83;;;10.60;90.60;;;;;;5100868;28;20062;-87
2021/12/16 04:02:57;;;;;;;35.63;19.13;;;10.60;90.40;;;;;;5100953;28;20062;-86
2021/12/16 04:05:24;;;;;;;38.22;19.73;;;10.60;90.40;;;;;;5101506;28;20019;-85
2021/12/16 04:07:50;;;;;;;35.10;20.10;;;10.70;90.40;;;;;;5101118;28;20115;-87
2021/12/16 04:10:22;;;;;;;35.38;19.50;;;10.70;90.40;;;;;;5100898;28;20100;-87
2021/12/16 04:12:50;;;;;;;34.20;19.15;;;10.70;90.30;;;;;;5100486;28;20114;-87
2021/12/16 04:15:16;;;;;;;36.17;19.52;;;10.70;90.30;;;;;;5100123;28;20020;-86
2021/12/16 04:17:42;;;;;;;33.75;19.23;;;10.70;90.30;;;;;;5100305;28;20022;-87
2021/12/16 04:20:11;;;;;;;37.30;20.60;;;10.70;90.30;;;;;;5100037;28;20023;-86
2021/12/16 04:22:43;;;;;;;31.73;19.73;;;10.70;90.30;;;;;;5100305;28;20035;-86
2021/12/16 04:25:14;;;;;;;37.72;21.15;;;10.70;90.30;;;;;;5118196;28;20534;-87
2021/12/16 04:31:02;;;;;;;34.53;19.80;;;10.70;90.40;;;;;;5117153;28;20100;-87
2021/12/16 04:33:28;;;;;;;36.90;20.75;;;10.60;90.30;;;;;;5101133;28;20032;-87
2021/12/16 04:35:54;;;;;;;35.05;19.90;;;10.60;90.30;;;;;;5100212;28;20028;-87
2021/12/16 04:38:20;;;;;;;33.53;20.10;;;10.60;90.30;;;;;;5099499;28;20031;-86
2021/12/16 04:40:48;;;;;;;34.58;20.08;;;10.60;90.30;;;;;;5099254;28;20509;-85
2021/12/16 04:43:20;;;;;;;36.58;20.65;;;10.60;90.30;;;;;;5117352;28;20102;-87
2021/12/16 04:45:47;;;;;;;36.58;20.08;;;10.50;90.40;;;;;;5099674;28;20027;-86
2021/12/16 04:51:47;;;;;;;32.63;18.90;;;10.50;90.50;;;;;;5118172;28;20350;-87
2021/12/16 04:54:13;;;;;;;34.05;18.65;;;10.50;90.50;;;;;;5118023;28;20073;-86
2021/12/16 04:56:40;;;;;;;35.22;18.73;;;10.60;90.40;;;;;;5099922;28;20065;-87
2021/12/16 04:59:09;;;;;;;38.92;20.60;;;10.60;90.40;;;;;;5099877;28;20031;-87
2021/12/16 05:01:37;;;;;;;35.15;19.13;;;10.50;90.40;;;;;;5100263;28;20382;-88
2021/12/16 05:04:04;;;;;;;32.80;19.02;;;10.60;90.40;;;;;;5100451;28;20032;-88
2021/12/16 05:06:29;;;;;;;34.30;19.05;;;10.60;90.40;;;;;;5100225;28;20479;-87
2021/12/16 05:08:55;;;;;;;31.50;17.23;;;10.60;90.40;;;;;;5099958;28;20039;-87
2021/12/16 05:11:22;;;;;;;26.02;16.17;;;10.60;90.40;;;;;;5097349;28;20083;-87
2021/12/16 05:13:49;;;;;;;27.88;15.95;;;10.50;90.40;;;;;;5099493;28;20153;-87
2021/12/16 05:16:15;;;;;;;31.80;16.40;;;10.60;90.40;;;;;;5098807;28;20052;-87
2021/12/16 05:18:41;;;;;;;28.55;16.45;;;10.60;90.40;;;;;;5097609;28;20024;-85
2021/12/16 05:21:40;;;;;;;28.35;15.27;;;10.50;90.40;;;;;;5097966;28;20122;-86
2021/12/16 05:26:40;;;;;;;28.73;14.68;;;10.60;90.40;;;;;;5116284;28;20039;-86
2021/12/16 05:29:06;;;;;;;27.55;15.18;;;10.60;90.40;;;;;;5097683;28;20083;-86
2021/12/16 05:31:32;;;;;;;27.40;15.60;;;10.60;90.70;;;;;;5097914;28;20043;-85
2021/12/16 05:33:59;;;;;;;28.30;16.25;;;10.60;90.40;;;;;;5116724;28;20085;-86
2021/12/16 05:36:25;;;;;;;28.42;15.90;;;10.60;90.30;;;;;;5098824;28;20049;-85
2021/12/16 05:38:51;;;;;;;27.55;15.80;;;10.60;90.30;;;;;;5098250;28;20031;-86
2021/12/16 05:41:20;;;;;;;27.90;15.40;;;10.60;90.30;;;;;;5098274;28;20578;-86
2021/12/16 05:43:46;;;;;;;27.27;15.77;;;10.60;90.30;;;;;;5097925;28;20027;-86
2021/12/16 05:46:14;;;;;;;28.63;15.90;;;10.60;90.30;;;;;;5098807;28;20042;-87
2021/12/16 05:48:43;;;;;;;27.35;15.07;;;10.50;90.40;;;;;;5098341;28;20548;-86
2021/12/16 05:51:17;;;;;;;30.05;15.02;;;10.50;90.40;;;;;;5098633;28;20051;-86
2021/12/16 05:53:44;;;;;;;29.13;15.88;;;10.50;90.40;;;;;;5098329;28;20031;-86
2021/12/16 05:56:11;;;;;;;28.33;15.15;;;10.50;90.40;;;;;;5098096;28;20040;-86
2021/12/16 05:58:37;;;;;;;28.58;16.10;;;10.50;90.40;;;;;;5098464;28;20059;-85
2021/12/16 06:01:10;;;;;;;29.13;16.20;;;10.60;90.40;;;;;;5102012;28;20052;-86
2021/12/16 06:03:38;;;;;;;32.30;16.65;;;10.50;90.40;;;;;;5101529;28;20130;-87
2021/12/16 06:06:04;;;;;;;27.48;15.18;;;10.60;90.40;;;;;;5103605;28;20039;-86
2021/12/16 06:08:30;;;;;;;32.67;16.05;;;10.50;90.60;;;;;;5103029;28;20031;-86
2021/12/16 06:13:37;;;;;;;29.45;15.63;;;10.50;90.40;;;;;;5121264;28;20043;-87
2021/12/16 06:27:10;;;;;;;29.38;15.52;;;10.50;90.50;;;;;;5123726;28;20106;-86
2021/12/16 06:29:55;;;;;;;32.83;15.15;;;10.40;90.50;;;;;;5108008;28;20429;-89
2021/12/16 06:35:48;;;;;;;32.70;15.07;;;10.50;90.50;;;;;;5123177;28;20087;-86
2021/12/16 06:41:37;;;;;;;29.30;14.60;;;10.40;90.40;;;;;;5123325;28;20081;-85
2021/12/16 06:44:17;;;;;;;27.13;15.00;;;10.40;90.50;;;;;;5102019;28;20028;-86
2021/12/16 06:50:06;;;;;;;24.58;13.35;;;10.40;90.50;;;;;;5120018;28;20034;-84
2021/12/16 06:52:42;;;;;;;25.35;14.27;;;10.40;90.50;;;;;;5102179;28;20151;-86
2021/12/16 06:58:42;;;;;;;24.50;13.90;;;10.40;90.50;;;;;;5120588;28;20062;-87
2021/12/16 07:01:29;;;;;;;23.17;13.00;;;10.40;90.50;;;;;;5103637;28;20052;-88
2021/12/16 07:03:58;;;;;;;21.52;13.20;;;10.40;90.50;;;;;;5102056;28;20023;-86
2021/12/16 07:06:30;;;;;;;23.80;12.98;;;10.50;90.60;;;;;;5102043;28;20478;-87
2021/12/16 07:09:11;;;;;;;28.45;14.30;;;10.50;90.50;;;;;;5101771;28;20036;-87
2021/12/16 07:11:47;;;;;;;27.88;13.52;;;10.50;90.50;;;;;;5101261;28;20020;-87
2021/12/16 07:17:44;;;;;;;23.52;12.82;;;10.50;90.50;;;;;;5122188;28;20578;-86
2021/12/16 07:20:19;;;;;;;23.30;12.73;;;10.40;90.50;;;;;;5120827;28;20028;-87
2021/12/16 07:26:09;;;;;;;26.67;13.60;;;10.50;90.50;;;;;;5120769;28;20072;-86
2021/12/16 07:28:38;;;;;;;20.08;12.70;;;10.50;90.50;;;;;;5120769;28;20028;-88
2021/12/16 07:31:28;;;;;;;24.00;11.60;;;10.50;90.50;;;;;;5103105;28;20092;-88
2021/12/16 07:33:55;;;;;;;25.00;12.68;;;10.50;90.40;;;;;;5091751;28;20031;-87
2021/12/16 07:36:22;;;;;;;24.67;13.05;;;10.50;90.40;;;;;;5103229;28;20016;-86
2021/12/16 07:38:54;;;;;;;23.63;13.27;;;10.50;90.50;;;;;;5103087;28;20032;-87
2021/12/16 07:41:32;;;;;;;24.42;12.65;;;10.50;90.50;;;;;;5103258;28;20051;-88
2021/12/16 07:44:12;;;;;;;24.38;13.05;;;10.50;90.50;;;;;;5103021;28;20031;-87
2021/12/16 07:50:11;;;;;;;28.98;13.48;;;10.50;90.40;;;;;;5121445;28;20072;-87
2021/12/16 07:52:37;;;;;;;25.75;13.77;;;10.50;90.40;;;;;;5103615;28;20023;-88
2021/12/16 07:58:25;;;;;;;26.98;13.80;;;10.50;90.50;;;;;;5122200;28;20053;-88
2021/12/16 08:00:53;;;;;;;28.17;12.90;;;10.50;90.50;;;;;;5103023;28;20031;-86
2021/12/16 08:03:19;;;;;;;29.42;13.52;;;10.50;90.40;;;;;;5102331;28;20483;-86
2021/12/16 08:05:54;;;;;;;27.00;13.70;;;10.40;90.40;;;;;;5102308;28;20087;-87
2021/12/16 08:08:22;;;;;;;26.52;12.88;;;10.40;90.50;;;;;;5102175;28;20043;-86
2021/12/16 08:10:49;;;;;;;36.75;14.40;;;10.40;90.50;;;;;;5121424;28;20027;-87
2021/12/16 08:13:18;;;;;;;28.55;14.23;;;10.50;90.50;;;;;;5103507;28;20057;-87
2021/12/16 08:15:46;;;;;;;23.65;13.50;;;10.50;90.50;;;;;;5121773;28;20055;-87
2021/12/16 08:21:35;;;;;;;30.55;14.80;;;10.50;90.40;;;;;;5121577;28;20030;-88
2021/12/16 08:24:03;;;;;;;30.20;14.15;;;10.50;90.40;;;;;;5102488;28;20028;-89
2021/12/16 08:26:30;;;;;;;31.55;14.52;;;10.50;90.40;;;;;;5118905;28;20027;-85
2021/12/16 08:32:17;;;;;;;42.30;15.20;;;10.50;90.50;;;;;;5118886;28;20042;-88
2021/12/16 08:34:45;;;;;;;32.10;14.60;;;10.50;90.40;;;;;;5103365;28;20027;-87
2021/12/16 08:37:13;;;;;;;26.38;13.52;;;10.50;90.40;;;;;;5104630;28;20506;-88
2021/12/16 08:39:58;;;;;;;28.50;13.23;;;10.50;90.50;;;;;;5105929;28;20039;-87
2021/12/16 08:42:24;;;;;;;30.38;14.02;;;10.50;90.40;;;;;;5105332;28;20109;-88
2021/12/16 08:48:12;;;;;;;32.03;13.50;;;10.60;90.40;;;;;;5123619;28;20563;-92
2021/12/16 08:50:43;;;;;;;35.75;13.57;;;10.50;90.40;;;;;;5107097;28;20032;-91
2021/12/16 08:53:09;;;;;;;36.83;13.15;;;10.50;90.40;;;;;;5106700;28;20019;-91
2021/12/16 08:55:37;;;;;;;31.30;12.88;;;10.60;90.40;;;;;;5106927;28;20048;-93
2021/12/16 08:58:04;;;;;;;35.05;12.93;;;10.60;90.40;;;;;;5106606;28;20024;-89
2021/12/16 09:00:35;;;;;;;24.75;12.70;;;10.60;90.40;;;;;;5111653;28;20024;-91
2021/12/16 09:03:01;;;;;;;27.17;13.00;;;10.60;90.40;;;;;;5109041;28;20548;-87
2021/12/16 09:05:28;;;;;;;28.92;12.75;;;10.70;90.40;;;;;;5103790;28;20031;-90
2021/12/16 09:07:58;;;;;;;25.30;13.30;;;10.70;90.40;;;;;;5106611;28;20023;-92
2021/12/16 09:10:28;;;;;;;31.85;13.25;;;10.70;90.30;;;;;;5107021;28;20023;-90
2021/12/16 09:13:03;;;;;;;25.90;12.55;;;10.70;90.30;;;;;;5106282;28;20109;-89
2021/12/16 09:15:46;;;;;;;39.15;12.85;;;10.70;90.30;;;;;;5104141;28;20016;-88
2021/12/16 09:21:37;;;;;;;41.85;12.88;;;10.80;90.30;;;;;;5118556;28;20440;-82
2021/12/16 09:24:06;;;;;;;38.97;12.93;;;10.80;90.30;;;;;;5100051;28;20023;-85
2021/12/16 09:26:32;;;;;;;34.45;13.15;;;10.70;90.20;;;;;;5101129;28;20027;-83
2021/12/16 09:28:58;;;;;;;33.95;12.27;;;10.70;90.20;;;;;;5099444;28;20027;-85
2021/12/16 09:34:46;;;;;;;29.80;11.77;;;10.80;90.30;;;;;;5121675;27;20074;-88
2021/12/16 09:37:16;;;;;;;41.60;11.90;;;10.70;90.20;;;;;;5113308;28;20027;-89
2021/12/16 09:39:45;;;;;;;21.95;11.35;;;10.70;90.30;;;;;;5105281;28;20065;-82
2021/12/16 09:42:12;;;;;;;31.65;11.88;;;10.70;90.20;;;;;;5104335;28;20020;-87
2021/12/16 09:44:39;;;;;;;39.95;12.35;;;10.80;90.20;;;;;;5110005;28;20031;-90
2021/12/16 09:47:09;;;;;;;32.22;12.10;;;10.70;90.20;;;;;;5107904;28;20023;-88
2021/12/16 09:49:36;;;;;;;26.90;11.80;;;10.70;90.20;;;;;;5126815;28;20133;-89
2021/12/16 09:52:04;;;;;;;34.25;12.25;;;10.70;90.20;;;;;;5111171;28;20157;-90
2021/12/16 09:54:33;;;;;;;29.60;12.35;;;10.70;90.20;;;;;;5110891;28;20028;-91
2021/12/16 09:57:00;;;;;;;25.33;12.63;;;10.70;90.20;;;;;;5110938;28;20032;-90
2021/12/16 09:59:33;;;;;;;53.35;12.15;;;10.70;90.20;;;;;;5111067;28;20111;-91
2021/12/16 10:05:36;;;;;;;24.17;11.52;;;10.70;90.10;;;;;;5134145;28;20039;-91
2021/12/16 10:11:49;;;;;;;25.23;11.55;;;10.70;90.20;;;;;;5132832;28;20041;-91
2021/12/16 10:20:46;;;;;;;28.33;10.23;;;10.80;90.20;;;;;;5132649;28;20027;-90
2021/12/16 10:26:37;;;;;;;20.40;10.70;;;10.80;90.10;;;;;;5131231;28;20331;-92
2021/12/16 10:29:06;;;;;;;26.35;11.20;;;10.80;90.10;;;;;;5110988;28;20039;-89
2021/12/16 10:31:35;;;;;;;22.58;10.60;;;10.90;90.20;;;;;;5109931;28;20020;-88
2021/12/16 10:37:55;;;;;;;22.13;10.55;;;11.00;90.10;;;;;;5026387;28;20092;-89
2021/12/16 10:40:36;;;;;;;29.92;13.40;;;11.00;90.10;;;;;;5048144;28;20055;-90
2021/12/16 10:43:07;;;;;;;31.60;14.73;;;11.00;90.00;;;;;;5109770;28;20035;-92
2021/12/16 10:45:35;;;;;;;37.45;12.98;;;11.00;90.00;;;;;;5107009;28;20032;-89
2021/12/16 10:48:11;;;;;;;23.70;12.15;;;11.00;90.10;;;;;;5108369;28;20061;-91
2021/12/16 10:51:01;;;;;;;25.15;12.13;;;11.10;90.10;;;;;;5105325;28;20032;-85
2021/12/16 10:54:01;;;;;;;28.48;11.80;;;11.10;90.10;;;;;;5119104;28;20386;-84
2021/12/16 10:56:31;;;;;;;22.15;11.52;;;11.10;90.00;;;;;;5102763;28;20020;-84
2021/12/16 10:59:06;;;;;;;29.33;12.40;;;11.10;90.00;;;;;;5105933;28;20091;-85
2021/12/16 11:01:53;;;;;;;26.95;11.57;;;11.10;90.00;;;;;;5104015;28;20027;-87
2021/12/16 11:04:43;;;;;;;25.42;11.05;;;11.10;90.00;;;;;;5105072;28;20038;-87
2021/12/16 11:07:17;;;;;;;19.90;11.40;;;11.10;90.00;;;;;;5104155;28;20130;-87
2021/12/16 11:09:43;;;;;;;30.88;11.90;;;11.20;90.00;;;;;;5104899;28;20035;-87
2021/12/16 11:12:18;;;;;;;30.55;11.63;;;11.20;90.00;;;;;;5106678;28;20045;-88
2021/12/16 11:14:50;;;;;;;26.60;12.10;;;11.20;90.00;;;;;;5106052;28;20077;-86
2021/12/16 11:17:22;;;;;;;21.10;12.10;;;11.20;89.90;;;;;;5107255;28;20019;-87
2021/12/16 11:20:03;;;;;;;23.60;12.25;;;11.10;89.80;;;;;;5108707;28;20510;-86
2021/12/16 11:22:32;;;;;;;29.98;12.27;;;11.10;89.80;;;;;;5104572;28;20028;-88
2021/12/16 11:25:18;;;;;;;35.10;12.50;;;11.10;89.70;;;;;;5103675;28;20110;-86
2021/12/16 11:27:49;;;;;;;36.60;11.45;;;11.10;89.60;;;;;;5099940;28;20100;-84
2021/12/16 11:30:33;;;;;;;29.77;12.18;;;11.10;89.60;;;;;;5101227;28;20110;-85
2021/12/16 11:33:22;;;;;;;;;;;11.10;89.50;;;;;;5103148;28;20032;-84
2021/12/16 11:35:56;;;;;;;29.33;12.13;;;11.00;89.50;;;;;;5095621;28;19979;-88
2021/12/16 11:39:03;;;;;;;25.55;11.73;;;10.90;89.80;;;;;;5104502;28;20027;-88
2021/12/16 11:44:59;;;;;;;24.23;11.63;;;11.00;89.70;;;;;;5018948;28;20564;-87
2021/12/16 11:47:30;;;;;;;50.85;11.25;;;10.90;89.60;;;;;;5002458;28;20060;-87
2021/12/16 11:50:03;;;;;;;49.78;11.27;;;11.00;89.60;;;;;;5063694;28;20051;-87
2021/12/16 11:52:35;;;;;;;32.67;11.25;;;10.90;89.40;;;;;;5104412;28;20027;-86
2021/12/16 11:55:11;;;;;;;16.33;9.60;;;10.90;89.40;;;;;;5103340;28;20106;-89
2021/12/16 12:01:25;;;;;;;21.33;10.48;;;10.90;89.60;;;;;;5123740;28;20018;-88
2021/12/16 12:03:59;;;;;;;25.60;10.90;;;11.00;89.60;;;;;;5120667;28;20102;-85
2021/12/16 12:06:28;;;;;;;41.17;11.60;;;10.90;89.40;;;;;;5111055;28;20027;-91
2021/12/16 12:09:36;;;;;;;32.33;10.30;;;11.00;89.50;;;;;;5110960;28;20036;-90
2021/12/16 12:15:25;;;;;;;26.38;10.32;;;11.00;89.50;;;;;;5122759;28;20113;-89
2021/12/16 12:17:55;;;;;;;21.70;10.50;;;11.00;89.40;;;;;;5105925;28;20028;-90
2021/12/16 12:20:36;;;;;;;23.52;10.95;;;11.10;89.40;;;;;;5104058;28;20020;-89
2021/12/16 12:23:06;;;;;;;20.27;10.85;;;11.10;89.40;;;;;;5108573;28;20122;-89
2021/12/16 12:25:39;;;;;;;17.42;9.60;;;11.20;89.30;;;;;;5126787;28;20027;-90
2021/12/16 12:28:05;;;;;;;18.15;10.65;;;11.20;89.20;;;;;;5107963;28;20032;-86
2021/12/16 12:34:07;;;;;;;18.58;10.35;;;11.20;89.10;;;;;;5123972;28;20034;-89
2021/12/16 12:36:34;;;;;;;31.73;10.90;;;11.20;89.20;;;;;;5105766;28;20071;-90
2021/12/16 12:39:05;;;;;;;23.60;10.52;;;11.20;89.00;;;;;;5107163;28;20117;-90
2021/12/16 12:41:34;;;;;;;23.20;10.80;;;11.20;89.10;;;;;;5107319;28;20027;-91
2021/12/16 12:47:42;;;;;;;17.60;10.63;;;11.20;89.10;;;;;;5124668;28;20092;-90
2021/12/16 12:50:25;;;;;;;18.38;10.00;;;11.20;89.10;;;;;;5126704;28;20049;-91
2021/12/16 12:52:54;;;;;;;18.02;9.68;;;11.30;89.10;;;;;;5104757;28;20023;-87
2021/12/16 12:55:23;;;;;;;16.92;10.20;;;11.30;89.00;;;;;;5101797;28;20030;-86
2021/12/16 12:57:50;;;;;;;19.77;10.00;;;11.30;89.00;;;;;;5102889;28;20020;-89
2021/12/16 13:03:49;;;;;;;23.38;10.27;;;11.30;89.00;;;;;;5120875;28;20095;-86
2021/12/16 13:06:21;;;;;;;35.80;10.60;;;11.30;88.90;;;;;;5104182;28;20465;-87
2021/12/16 13:08:49;;;;;;;20.50;9.73;;;11.30;88.80;;;;;;5104816;28;20102;-86
2021/12/16 13:11:30;;;;;;;21.25;10.85;;;11.30;88.80;;;;;;5107376;28;20498;-89
2021/12/16 13:14:29;;;;;;;18.65;10.63;;;11.30;88.80;;;;;;5107530;28;20057;-88
2021/12/16 13:17:31;;;;;;;16.90;11.00;;;11.30;88.80;;;;;;5125961;28;20035;-88
2021/12/16 13:32:25;;;;;;;16.55;10.43;;;11.40;88.70;;;;;;5112458;28;20447;-87
2021/12/16 13:34:33;;;;;;;17.20;10.98;;;11.40;88.80;;;;;;5119910;28;20031;-88
2021/12/16 13:37:23;;;;;;;17.98;11.20;;;11.40;88.80;;;;;;5110053;28;20439;-89
2021/12/16 13:43:25;;;;;;;18.23;10.93;;;11.50;88.70;;;;;;5124232;28;20027;-88
2021/12/16 13:46:32;;;;;;;20.00;11.30;;;11.50;88.70;;;;;;5104131;28;20028;-86
2021/12/16 14:10:03;;;;;;;18.95;11.18;;;11.30;89.40;;;;;;5125230;28;20117;-86
2021/12/16 14:15:22;;;;;;;19.35;10.88;;;11.30;88.80;;;;;;5123933;28;20479;-86
2021/12/16 14:18:02;;;;;;;21.58;11.38;;;11.30;88.90;;;;;;5106835;28;20269;-87
2021/12/16 14:46:43;;;;;;;20.63;11.25;;;11.10;89.00;;;;;;5067485;28;20072;-90
2021/12/16 14:49:12;;;;;;;22.95;12.13;;;11.10;89.10;;;;;;5046542;28;20036;-87
2021/12/16 14:51:37;;;;;;;27.30;12.60;;;11.10;89.10;;;;;;5047285;28;20499;-85
2021/12/16 14:54:04;;;;;;;21.88;13.27;;;11.10;89.00;;;;;;5099090;28;20067;-86
2021/12/16 14:56:33;;;;;;;20.63;12.40;;;11.00;89.00;;;;;;5101904;28;20409;-88
2021/12/16 14:59:11;;;;;;;24.60;12.77;;;10.90;89.10;;;;;;5103815;28;20030;-86
2021/12/16 15:01:52;;;;;;;24.38;12.20;;;10.90;89.40;;;;;;5105037;28;20024;-86
2021/12/16 15:04:26;;;;;;;25.92;12.68;;;10.90;89.30;;;;;;5103272;28;20042;-87
2021/12/16 15:09:56;;;;;;;31.67;12.57;;;10.90;89.40;;;;;;5123690;28;19977;-86
2021/12/16 15:12:41;;;;;;;30.90;12.43;;;10.80;89.30;;;;;;5104039;28;20080;-86
2021/12/16 15:15:23;;;;;;;20.35;12.25;;;10.80;89.40;;;;;;5103422;28;20024;-85
2021/12/16 15:34:37;;;;;;;29.38;12.90;;;10.70;89.40;;;;;;5081290;28;20043;-86
2021/12/16 15:43:55;;;;;;;23.75;12.00;;;10.70;89.40;;;;;;5081934;28;20062;-90
2021/12/16 15:49:42;;;;;;;20.10;11.30;;;10.60;89.60;;;;;;5080238;28;20459;-88
2021/12/16 15:52:15;;;;;;;22.88;12.60;;;10.60;89.70;;;;;;5066265;28;20478;-88
2021/12/16 15:54:47;;;;;;;21.25;11.52;;;10.60;89.70;;;;;;5066017;28;20033;-87
2021/12/16 15:57:13;;;;;;;24.60;12.27;;;10.60;89.60;;;;;;5061967;28;20032;-90
2021/12/16 15:59:40;;;;;;;23.55;12.50;;;10.70;89.60;;;;;;5061126;28;20079;-87
2021/12/16 16:05:34;;;;;;;20.48;11.65;;;10.70;89.60;;;;;;5121570;28;20046;-90
2021/12/16 16:08:02;;;;;;;20.98;11.77;;;10.60;89.50;;;;;;5104710;28;20038;-91
2021/12/16 16:10:28;;;;;;;24.98;12.07;;;10.60;89.50;;;;;;5101982;28;20398;-89
2021/12/16 16:13:06;;;;;;;21.30;11.18;;;10.60;89.40;;;;;;5119007;28;20063;-90
2021/12/16 16:15:33;;;;;;;21.48;12.02;;;10.60;89.50;;;;;;5101898;28;20054;-91
2021/12/16 16:18:32;;;;;;;27.88;12.18;;;10.50;89.60;;;;;;5102981;28;20024;-87
2021/12/16 16:24:54;;;;;;;24.00;12.65;;;10.50;89.90;;;;;;5123325;28;20030;-90
2021/12/16 16:27:25;;;;;;;23.30;12.40;;;10.60;89.80;;;;;;5104993;28;20039;-89
2021/12/16 16:29:55;;;;;;;22.85;12.02;;;10.60;89.80;;;;;;5106218;28;20509;-91
2021/12/16 16:32:44;;;;;;;38.70;12.13;;;10.60;89.70;;;;;;5105464;28;20551;-87
2021/12/16 16:35:15;;;;;;;22.10;13.07;;;10.60;89.60;;;;;;5102213;28;20100;-90
2021/12/16 16:37:41;;;;;;;25.20;12.93;;;10.70;89.70;;;;;;5105634;28;20505;-90
2021/12/16 16:40:11;;;;;;;40.05;12.50;;;10.60;89.70;;;;;;5105531;28;20027;-88
2021/12/16 16:42:44;;;;;;;28.23;12.70;;;10.70;89.70;;;;;;5106793;28;20047;-92
2021/12/16 16:45:23;;;;;;;24.70;12.10;;;10.70;89.70;;;;;;5126594;28;20031;-89
2021/12/16 16:47:55;;;;;;;28.17;12.73;;;10.70;89.70;;;;;;5103658;28;20042;-87
2021/12/16 16:50:25;;;;;;;36.50;13.18;;;10.70;89.70;;;;;;5104324;28;20016;-86
2021/12/16 16:52:55;;;;;;;42.53;12.60;;;10.70;89.70;;;;;;5103214;28;20024;-88
2021/12/16 16:58:45;;;;;;;29.85;12.60;;;10.60;89.70;;;;;;5122382;28;20035;-84
2021/12/16 17:02:13;;;;;;;25.17;11.95;;;10.60;89.80;;;;;;5101037;28;20027;-88
2021/12/16 17:08:18;;;;;;;16.07;11.47;;;10.50;89.80;;;;;;5053606;28;20059;-92
2021/12/16 17:10:59;;;;;;;16.52;11.18;;;10.40;89.90;;;;;;5109732;28;20476;-92
2021/12/16 17:17:24;;;;;;;19.55;12.32;;;10.30;90.00;;;;;;5041327;28;20100;-90
2021/12/16 17:23:50;;;;;;;21.67;14.27;;;10.40;90.10;;;;;;4961270;29;20108;-87
2021/12/16 17:26:32;;;;;;;21.33;13.43;;;10.40;90.00;;;;;;4960117;28;20031;-90
2021/12/16 17:29:13;;;;;;;20.35;13.32;;;10.50;90.30;;;;;;5085951;28;20081;-87
2021/12/16 17:31:44;;;;;;;22.75;13.50;;;10.50;90.00;;;;;;5101058;28;20032;-86
2021/12/16 17:34:21;;;;;;;23.58;14.95;;;10.60;90.00;;;;;;5101413;28;20030;-87
2021/12/16 17:36:59;;;;;;;24.60;15.25;;;10.60;90.00;;;;;;5100669;28;20058;-86
2021/12/16 17:39:33;;;;;;;26.05;15.68;;;10.70;90.00;;;;;;5119173;28;20031;-88
2021/12/16 17:42:03;;;;;;;25.23;14.88;;;10.70;90.00;;;;;;5103354;28;20024;-89
2021/12/16 17:47:55;;;;;;;30.17;15.35;;;10.70;89.90;;;;;;5120087;28;20042;-89
2021/12/16 17:50:27;;;;;;;29.67;15.60;;;10.70;89.90;;;;;;5099966;28;20028;-88
2021/12/16 17:53:00;;;;;;;30.75;16.08;;;10.70;89.90;;;;;;5100851;28;20041;-87
2021/12/16 17:55:36;;;;;;;29.83;16.55;;;10.80;89.90;;;;;;5121021;28;20072;-88
2021/12/16 18:01:30;;;;;;;31.42;16.85;;;10.80;89.90;;;;;;5122997;28;20592;-89
2021/12/16 18:04:07;;;;;;;30.85;16.98;;;10.80;89.90;;;;;;5106781;28;20031;-88
2021/12/16 18:09:59;;;;;;;29.17;16.80;;;10.90;89.80;;;;;;5123440;28;20046;-87
2021/12/16 18:12:39;;;;;;;34.65;18.48;;;10.90;89.80;;;;;;5107050;28;20027;-89
2021/12/16 18:19:20;;;;;;;31.67;16.95;;;11.00;89.70;;;;;;5062557;28;20154;-88
2021/12/16 18:21:49;;;;;;;33.63;18.67;;;11.10;89.70;;;;;;5044867;28;20037;-89
2021/12/16 18:28:44;;;;;;;31.30;16.95;;;11.10;89.60;;;;;;5062314;28;20040;-88
2021/12/16 18:31:30;;;;;;;32.67;17.42;;;11.10;89.60;;;;;;4984192;28;20040;-90
2021/12/16 18:37:17;;;;;;;33.15;17.15;;;11.10;89.50;;;;;;5060807;28;20067;-85
2021/12/16 18:39:49;;;;;;;32.30;17.55;;;11.10;89.50;;;;;;5025215;28;20057;-91
2021/12/16 18:42:40;;;;;;;34.50;18.55;;;11.10;89.50;;;;;;5026711;28;20504;-89
2021/12/16 19:00:39;;;;;;;58.65;32.92;;;11.20;89.40;;;;;;5106355;28;20054;-89
2021/12/16 19:06:56;;;;;;;44.40;24.80;;;11.20;89.40;;;;;;5104816;28;20060;-88
2021/12/16 19:09:32;;;;;;;;;;;;;;;;;;;;;
2021/12/16 19:12:05;;;;;;;38.63;21.20;;;11.20;89.30;;;;;;5104984;28;20107;-88
2021/12/16 19:14:37;;;;;;;34.10;19.10;;;11.30;89.40;;;;;;5085023;28;20055;-88
2021/12/16 19:17:05;;;;;;;34.13;18.45;;;11.30;89.40;;;;;;5084465;28;20025;-86
2021/12/16 19:20:17;;;;;;;32.55;17.38;;;11.30;89.40;;;;;;5082990;28;20028;-86
2021/12/16 19:22:50;;;;;;;29.77;18.42;;;11.30;89.30;;;;;;5081515;28;20040;-86
2021/12/16 19:25:24;;;;;;;32.38;18.40;;;11.30;89.30;;;;;;5100485;28;20028;-86
2021/12/16 19:27:53;;;;;;;29.45;17.35;;;11.30;89.30;;;;;;5079704;28;20085;-86
2021/12/16 19:30:27;;;;;;;33.03;18.25;;;11.20;89.30;;;;;;5082844;28;20396;-86
2021/12/16 19:32:54;;;;;;;33.10;17.35;;;11.30;89.30;;;;;;5082207;28;20053;-86